createdAt,value
2019-02-27T00:01:20.806Z,30.27
2019-02-27T00:03:50.470Z,27.33
2019-02-27T00:06:19.817Z,28.50
2019-02-27T00:08:49.525Z,32.13
2019-02-27T00:11:18.852Z,33.03
2019-02-27T00:13:49.355Z,33.67
2019-02-27T00:16:18.707Z,35.40
2019-02-27T00:18:48.345Z,35.47
2019-02-27T00:21:19.318Z,30.60
2019-02-27T00:23:49.085Z,32.63
2019-02-27T00:26:18.446Z,30.33
2019-02-27T00:29:07.202Z,32.07
2019-02-27T00:31:36.848Z,28.60
2019-02-27T00:34:06.490Z,32.20
2019-02-27T00:36:35.817Z,30.00
2019-02-27T00:39:05.528Z,30.60
2019-02-27T00:41:34.859Z,30.50
2019-02-27T00:44:04.528Z,33.33
2019-02-27T00:46:34.092Z,35.30
2019-02-27T00:49:03.805Z,31.57
2019-02-27T00:51:33.511Z,32.87
2019-02-27T00:54:03.116Z,29.73
2019-02-27T00:56:32.818Z,30.73
2019-02-27T00:59:02.426Z,31.67
2019-02-27T01:01:32.044Z,31.63
2019-02-27T01:04:02.452Z,31.67
2019-02-27T01:06:31.873Z,28.13
2019-02-27T01:09:03.892Z,27.80
2019-02-27T01:11:32.829Z,26.80
2019-02-27T01:14:04.165Z,28.83
2019-02-27T01:16:33.565Z,28.27
2019-02-27T01:19:04.731Z,28.30
2019-02-27T01:21:34.335Z,28.00
2019-02-27T01:24:03.645Z,30.13
2019-02-27T01:26:33.001Z,28.00
2019-02-27T01:29:02.334Z,28.67
2019-02-27T01:31:31.740Z,28.23
2019-02-27T01:34:01.431Z,29.23
2019-02-27T01:36:30.798Z,29.87
2019-02-27T01:39:00.145Z,27.00
2019-02-27T01:41:29.478Z,28.27
2019-02-27T01:43:59.151Z,28.57
2019-02-27T01:46:28.750Z,28.73
2019-02-27T01:48:58.451Z,27.87
2019-02-27T01:51:28.185Z,28.93
2019-02-27T01:53:58.323Z,30.73
2019-02-27T01:56:29.095Z,27.80
2019-02-27T01:58:59.035Z,30.07
2019-02-27T02:01:30.293Z,28.67
2019-02-27T02:03:59.442Z,29.77
2019-02-27T02:06:32.013Z,30.17
2019-02-27T02:09:31.561Z,32.57
2019-02-27T02:12:08.796Z,28.10
2019-02-27T02:15:32.451Z,28.57
2019-02-27T02:18:28.720Z,30.47
2019-02-27T02:21:34.326Z,27.27
2019-02-27T02:24:41.320Z,27.03
2019-02-27T02:27:24.492Z,26.70
2019-02-27T02:30:48.574Z,28.73
2019-02-27T02:33:41.034Z,27.37
2019-02-27T02:36:24.787Z,30.40
2019-02-27T02:39:17.631Z,28.80
2019-02-27T02:41:59.170Z,29.13
2019-02-27T02:44:33.707Z,31.10
2019-02-27T02:47:19.584Z,31.47
2019-02-27T02:50:17.467Z,30.53
2019-02-27T02:53:00.328Z,30.27
2019-02-27T02:56:00.167Z,28.20
2019-02-27T02:58:47.158Z,30.03
2019-02-27T03:01:28.092Z,30.70
2019-02-27T03:04:12.765Z,30.70
2019-02-27T03:07:12.426Z,29.37
2019-02-27T03:10:07.153Z,27.90
2019-02-27T03:13:07.117Z,27.50
2019-02-27T03:15:54.818Z,30.33
2019-02-27T03:18:50.149Z,28.57
2019-02-27T03:21:51.257Z,30.03
2019-02-27T03:24:45.884Z,28.97
2019-02-27T03:27:56.950Z,28.67
2019-02-27T03:30:37.148Z,29.30
2019-02-27T03:33:39.050Z,30.33
2019-02-27T03:36:46.793Z,26.17
2019-02-27T03:39:24.403Z,27.63
2019-02-27T03:42:07.809Z,27.50
2019-02-27T03:44:45.108Z,29.80
2019-02-27T03:47:31.267Z,28.77
2019-02-27T03:50:31.003Z,29.13
2019-02-27T03:53:13.493Z,29.60
2019-02-27T03:56:10.059Z,31.50
2019-02-27T03:59:07.247Z,29.17
2019-02-27T04:01:50.185Z,27.97
2019-02-27T04:04:54.350Z,30.67
2019-02-27T04:07:54.479Z,28.73
2019-02-27T04:10:23.814Z,31.27
2019-02-27T04:12:53.152Z,29.80
2019-02-27T04:15:22.856Z,28.90
2019-02-27T04:17:52.363Z,28.57
2019-02-27T04:20:21.955Z,32.53
2019-02-27T04:22:51.304Z,31.47
2019-02-27T04:25:20.617Z,31.20
2019-02-27T04:27:55.288Z,29.27
2019-02-27T04:30:21.704Z,31.70
2019-02-27T04:32:51.026Z,31.73
2019-02-27T04:35:20.711Z,30.13
2019-02-27T04:37:53.859Z,30.20
2019-02-27T04:40:21.111Z,29.07
2019-02-27T04:42:50.562Z,31.07
2019-02-27T04:45:20.162Z,29.57
2019-02-27T04:47:49.563Z,33.40
2019-02-27T04:50:19.138Z,30.87
2019-02-27T04:52:48.453Z,31.33
2019-02-27T04:55:18.120Z,27.47
2019-02-27T04:57:47.901Z,31.57
2019-02-27T05:00:17.211Z,37.70
2019-02-27T05:02:47.112Z,29.97
2019-02-27T05:05:16.446Z,33.10
2019-02-27T05:07:45.795Z,29.10
2019-02-27T05:10:15.561Z,31.47
2019-02-27T05:12:47.837Z,31.63
2019-02-27T05:15:16.286Z,33.27
2019-02-27T05:17:45.970Z,34.17
2019-02-27T05:20:15.696Z,30.13
2019-02-27T05:22:45.375Z,30.30
2019-02-27T05:25:15.171Z,35.73
2019-02-27T05:27:44.899Z,34.07
2019-02-27T05:30:14.619Z,31.90
2019-02-27T05:32:43.968Z,33.60
2019-02-27T05:35:13.285Z,31.97
2019-02-27T05:37:42.595Z,33.70
2019-02-27T05:40:12.231Z,34.13
2019-02-27T05:42:41.583Z,33.30
2019-02-27T05:45:12.904Z,32.13
2019-02-27T05:47:45.835Z,33.70
2019-02-27T05:50:14.013Z,30.23
2019-02-27T05:52:48.314Z,33.07
2019-02-27T05:55:14.761Z,34.07
2019-02-27T05:57:44.141Z,35.83
2019-02-27T06:00:19.648Z,35.87
2019-02-27T06:02:49.216Z,34.93
2019-02-27T06:05:18.823Z,34.77
2019-02-27T06:07:48.181Z,31.97
2019-02-27T06:10:20.144Z,34.77
2019-02-27T06:12:49.279Z,34.23
2019-02-27T06:15:19.533Z,33.30
2019-02-27T06:17:49.738Z,34.60
2019-02-27T06:20:19.282Z,33.80
2019-02-27T06:22:48.687Z,35.50
2019-02-27T06:25:23.332Z,37.43
2019-02-27T06:27:50.533Z,33.83
2019-02-27T06:30:21.743Z,33.33
2019-02-27T06:32:51.360Z,34.87
2019-02-27T06:35:20.960Z,40.30
2019-02-27T06:37:51.337Z,36.60
2019-02-27T06:40:21.098Z,35.57
2019-02-27T06:42:53.649Z,35.97
2019-02-27T06:45:21.862Z,35.27
2019-02-27T06:47:51.285Z,33.37
2019-02-27T06:50:25.240Z,34.67
2019-02-27T06:52:51.912Z,33.73
2019-02-27T06:55:21.271Z,36.53
2019-02-27T06:57:50.909Z,37.63
2019-02-27T07:00:47.018Z,35.43
2019-02-27T07:03:16.355Z,35.63
2019-02-27T07:05:48.276Z,35.63
2019-02-27T07:08:17.112Z,36.07
2019-02-27T07:10:46.520Z,39.03
2019-02-27T07:13:16.196Z,35.33
2019-02-27T07:15:48.172Z,35.67
2019-02-27T07:18:17.261Z,32.50
2019-02-27T07:20:46.617Z,36.97
2019-02-27T07:23:16.281Z,34.17
2019-02-27T07:25:45.596Z,36.77
2019-02-27T07:28:15.050Z,42.30
2019-02-27T07:30:44.462Z,36.97
2019-02-27T07:33:13.793Z,39.77
2019-02-27T07:35:43.119Z,37.30
2019-02-27T07:38:12.530Z,37.77
2019-02-27T07:40:42.926Z,39.77
2019-02-27T07:43:12.882Z,38.40
2019-02-27T07:45:42.773Z,37.97
2019-02-27T07:48:13.318Z,38.10
2019-02-27T07:50:43.157Z,36.83
2019-02-27T07:53:17.442Z,39.03
2019-02-27T07:55:44.319Z,34.67
2019-02-27T07:58:13.928Z,35.50
2019-02-27T08:00:43.343Z,41.17
2019-02-27T08:03:13.143Z,35.40
2019-02-27T08:05:42.755Z,36.93
2019-02-27T08:08:12.452Z,35.90
2019-02-27T08:10:42.051Z,34.73
2019-02-27T08:13:11.457Z,36.47
2019-02-27T08:15:41.408Z,35.80
2019-02-27T08:18:10.874Z,37.73
2019-02-27T08:20:40.602Z,33.23
2019-02-27T08:23:09.976Z,38.50
2019-02-27T08:25:39.328Z,34.83
2019-02-27T08:28:08.957Z,37.20
2019-02-27T08:30:38.358Z,35.37
2019-02-27T08:33:08.445Z,37.00
2019-02-27T08:35:38.693Z,35.03
2019-02-27T08:38:08.016Z,36.50
2019-02-27T08:40:37.703Z,38.50
2019-02-27T08:43:07.029Z,35.27
2019-02-27T08:45:36.637Z,35.83
2019-02-27T08:48:06.010Z,38.10
2019-02-27T08:50:35.619Z,39.83
2019-02-27T08:53:04.962Z,36.83
2019-02-27T08:55:39.032Z,38.17
2019-02-27T08:58:07.243Z,35.37
2019-02-27T09:00:36.898Z,36.90
2019-02-27T09:03:06.279Z,34.47
2019-02-27T09:05:35.935Z,35.03
2019-02-27T09:08:07.367Z,37.27
2019-02-27T09:10:37.069Z,35.37
2019-02-27T09:13:06.410Z,35.83
2019-02-27T09:15:35.749Z,35.50
2019-02-27T09:18:05.085Z,35.53
2019-02-27T09:20:34.416Z,36.43
2019-02-27T09:23:03.799Z,34.83
2019-02-27T09:25:33.164Z,35.00
2019-02-27T09:28:03.526Z,34.03
2019-02-27T09:30:33.001Z,35.50
2019-02-27T09:33:02.366Z,36.47
2019-02-27T09:35:33.328Z,34.27
2019-02-27T09:38:02.986Z,34.50
2019-02-27T09:40:32.432Z,34.57
2019-02-27T09:43:02.033Z,32.37
2019-02-27T09:45:35.563Z,34.00
2019-02-27T09:48:05.736Z,35.30
2019-02-27T09:50:41.656Z,37.90
2019-02-27T09:53:11.196Z,32.00
2019-02-27T09:55:43.126Z,33.07
2019-02-27T09:58:13.501Z,34.60
2019-02-27T10:00:59.157Z,30.20
2019-02-27T10:03:29.000Z,30.67
2019-02-27T10:05:58.580Z,31.13
2019-02-27T10:08:27.940Z,30.33
2019-02-27T10:10:57.517Z,30.37
2019-02-27T10:13:26.864Z,29.00
2019-02-27T10:16:00.577Z,33.13
2019-02-27T10:18:27.333Z,30.63
2019-02-27T10:20:56.936Z,30.50
2019-02-27T10:23:30.239Z,29.77
2019-02-27T10:25:57.944Z,31.17
2019-02-27T10:28:27.549Z,31.43
2019-02-27T10:30:57.161Z,33.17
2019-02-27T10:33:26.804Z,27.77
2019-02-27T10:35:56.454Z,31.43
2019-02-27T10:38:26.813Z,32.17
2019-02-27T10:40:56.179Z,31.53
2019-02-27T10:43:25.513Z,28.60
2019-02-27T10:45:55.102Z,31.20
2019-02-27T10:48:24.727Z,30.00
2019-02-27T10:50:54.129Z,26.73
2019-02-27T10:53:27.163Z,25.33
2019-02-27T10:55:56.092Z,27.87
2019-02-27T10:58:25.519Z,29.37
2019-02-27T11:00:55.256Z,30.80
2019-02-27T11:03:27.027Z,28.83
2019-02-27T11:05:55.711Z,28.57
2019-02-27T11:08:28.886Z,27.50
2019-02-27T11:10:56.151Z,28.77
2019-02-27T11:13:25.853Z,28.37
2019-02-27T11:15:55.484Z,30.67
2019-02-27T11:18:24.829Z,29.70
2019-02-27T11:20:55.719Z,28.90
2019-02-27T11:23:24.563Z,27.37
2019-02-27T11:25:56.995Z,27.40
2019-02-27T11:28:25.217Z,27.30
2019-02-27T11:30:54.555Z,30.87
2019-02-27T11:33:25.827Z,27.00
2019-02-27T11:35:54.956Z,27.53
2019-02-27T11:38:25.341Z,28.07
2019-02-27T11:40:55.141Z,26.07
2019-02-27T11:43:24.477Z,26.17
2019-02-27T11:45:57.497Z,26.73
2019-02-27T11:48:25.182Z,26.87
2019-02-27T11:50:54.782Z,23.63
2019-02-27T11:53:24.125Z,26.20
2019-02-27T11:55:53.484Z,25.10
2019-02-27T11:58:23.143Z,23.10
2019-02-27T12:00:52.576Z,22.80
2019-02-27T12:03:21.993Z,25.30
2019-02-27T12:05:51.390Z,24.60
2019-02-27T12:08:22.430Z,22.17
2019-02-27T12:10:52.156Z,21.23
2019-02-27T12:13:21.550Z,20.47
2019-02-27T12:15:51.168Z,21.03
2019-02-27T12:18:20.890Z,17.90
2019-02-27T12:20:53.228Z,20.47
2019-02-27T12:23:21.279Z,19.20
2019-02-27T12:25:50.949Z,15.40
2019-02-27T12:28:20.866Z,16.43
2019-02-27T12:30:50.193Z,19.40
2019-02-27T12:33:19.842Z,20.17
2019-02-27T12:35:49.472Z,19.20
2019-02-27T12:38:18.803Z,16.57
2019-02-27T12:40:48.473Z,18.13
2019-02-27T12:43:18.566Z,19.73
2019-02-27T12:45:48.022Z,20.63
2019-02-27T12:48:17.683Z,18.70
2019-02-27T12:50:47.032Z,20.73
2019-02-27T12:53:20.668Z,21.93
2019-02-27T12:55:47.756Z,19.83
2019-02-27T12:58:17.098Z,16.53
2019-02-27T13:00:46.426Z,16.67
2019-02-27T13:03:16.154Z,16.80
2019-02-27T13:05:45.481Z,16.87
2019-02-27T13:08:16.359Z,15.97
2019-02-27T13:10:46.205Z,17.00
2019-02-27T13:13:15.896Z,15.90
2019-02-27T13:15:45.506Z,15.30
2019-02-27T13:18:15.118Z,15.17
2019-02-27T13:20:45.678Z,16.07
2019-02-27T13:23:15.698Z,16.03
2019-02-27T13:25:44.995Z,15.10
2019-02-27T13:28:15.565Z,14.47
2019-02-27T13:30:45.009Z,15.97
2019-02-27T13:33:14.354Z,14.10
2019-02-27T13:35:43.750Z,14.77
2019-02-27T13:38:17.478Z,14.33
2019-02-27T13:40:44.481Z,14.40
2019-02-27T13:43:13.835Z,13.73
2019-02-27T13:45:47.379Z,14.47
2019-02-27T13:48:14.337Z,15.30
2019-02-27T13:50:43.686Z,15.10
2019-02-27T13:53:13.449Z,13.03
2019-02-27T13:55:45.364Z,15.33
2019-02-27T13:58:13.916Z,15.53
2019-02-27T14:00:43.549Z,17.07
2019-02-27T14:03:13.408Z,13.27
2019-02-27T14:05:42.933Z,12.90
2019-02-27T14:08:12.577Z,14.27
2019-02-27T14:10:42.275Z,14.53
2019-02-27T14:13:11.992Z,15.40
2019-02-27T14:15:41.313Z,14.13
2019-02-27T14:18:13.370Z,13.60
2019-02-27T14:20:42.337Z,14.93
2019-02-27T14:23:11.938Z,14.37
2019-02-27T14:25:43.190Z,15.37
2019-02-27T14:28:12.902Z,13.97
2019-02-27T14:30:49.632Z,16.90
2019-02-27T14:33:20.438Z,15.77
2019-02-27T14:35:50.235Z,15.77
2019-02-27T14:38:21.929Z,14.27
2019-02-27T14:40:51.378Z,17.87
2019-02-27T14:43:20.985Z,14.57
2019-02-27T14:45:50.910Z,14.57
2019-02-27T14:48:21.524Z,16.10
2019-02-27T14:50:51.889Z,14.53
2019-02-27T14:53:21.305Z,14.77
2019-02-27T14:55:50.634Z,10.40
2019-02-27T14:58:24.057Z,12.40
2019-02-27T15:00:51.306Z,10.07
2019-02-27T15:03:21.031Z,10.67
2019-02-27T15:05:50.390Z,10.03
2019-02-27T15:08:19.726Z,10.07
2019-02-27T15:10:49.049Z,9.67
2019-02-27T15:13:18.445Z,9.67
2019-02-27T15:15:47.818Z,10.93
2019-02-27T15:25:19.816Z,8.83
2019-02-27T15:27:58.337Z,10.10
2019-02-27T15:30:32.743Z,9.57
2019-02-27T15:33:04.886Z,8.63
2019-02-27T15:35:33.503Z,9.50
2019-02-27T15:38:02.839Z,8.40
2019-02-27T15:40:32.192Z,8.63
2019-02-27T15:43:10.714Z,8.47
2019-02-27T15:45:32.889Z,7.10
2019-02-27T15:48:06.644Z,8.90
2019-02-27T15:50:36.092Z,7.97
2019-02-27T15:53:05.770Z,7.30
2019-02-27T15:55:35.697Z,6.83
2019-02-27T15:58:06.551Z,9.40
2019-02-27T16:00:36.225Z,7.03
2019-02-27T16:03:10.827Z,7.60
2019-02-27T16:05:36.613Z,7.20
2019-02-27T16:08:06.281Z,6.57
2019-02-27T16:10:35.992Z,8.10
2019-02-27T16:13:05.598Z,9.40
2019-02-27T16:15:34.978Z,8.27
2019-02-27T16:18:05.216Z,7.43
2019-02-27T16:20:34.707Z,7.30
2019-02-27T16:23:05.223Z,6.53
2019-02-27T16:25:34.727Z,10.33
2019-02-27T16:28:04.041Z,6.50
2019-02-27T16:30:34.780Z,6.97
2019-02-27T16:33:04.126Z,8.07
2019-02-27T16:35:33.443Z,6.90
2019-02-27T16:38:03.080Z,9.37
2019-02-27T16:40:32.434Z,7.40
2019-02-27T16:43:02.110Z,8.17
2019-02-27T16:45:39.584Z,8.60
2019-02-27T16:48:11.111Z,9.33
2019-02-27T16:50:39.982Z,9.00
2019-02-27T16:53:09.651Z,9.40
2019-02-27T16:55:39.642Z,9.20
2019-02-27T16:58:09.088Z,9.20
2019-02-27T17:00:40.054Z,9.87
2019-02-27T17:03:13.064Z,10.23
2019-02-27T17:05:43.120Z,9.67
2019-02-27T17:08:12.059Z,12.50
2019-02-27T17:10:42.666Z,8.70
2019-02-27T17:13:14.862Z,10.30
2019-02-27T17:15:43.475Z,10.77
2019-02-27T17:18:12.893Z,9.87
2019-02-27T17:20:45.788Z,11.33
2019-02-27T17:23:13.495Z,10.13
2019-02-27T17:25:44.854Z,10.80
2019-02-27T17:28:14.461Z,10.77
2019-02-27T17:30:43.807Z,8.97
2019-02-27T17:33:13.182Z,10.43
2019-02-27T17:35:42.494Z,13.43
2019-02-27T17:38:13.721Z,13.57
2019-02-27T17:40:42.921Z,12.77
2019-02-27T17:43:12.253Z,15.00
2019-02-27T17:45:44.327Z,18.17
2019-02-27T17:48:13.127Z,44.73
2019-02-27T17:50:42.779Z,17.40
2019-02-27T17:53:12.419Z,27.83
2019-02-27T17:55:42.554Z,15.07
2019-02-27T17:58:12.258Z,18.60
2019-02-27T18:00:50.115Z,16.17
2019-02-27T18:03:17.532Z,13.23
2019-02-27T18:05:47.156Z,16.90
2019-02-27T18:08:17.187Z,17.87
2019-02-27T18:10:46.573Z,14.97
2019-02-27T18:13:15.898Z,17.13
2019-02-27T18:15:45.248Z,23.07
2019-02-27T18:18:14.821Z,23.27
2019-02-27T18:20:44.161Z,24.23
2019-02-27T18:23:13.491Z,17.63
2019-02-27T18:25:42.834Z,16.00
2019-02-27T18:28:12.424Z,20.40
2019-02-27T18:30:42.769Z,18.27
2019-02-27T18:33:14.271Z,16.47
2019-02-27T18:35:43.774Z,16.83
2019-02-27T18:38:13.357Z,17.70
2019-02-27T18:40:42.921Z,18.97
2019-02-27T18:43:13.002Z,18.07
2019-02-27T18:45:42.318Z,18.77
2019-02-27T18:48:11.638Z,18.57
2019-02-27T18:50:41.260Z,19.03
2019-02-27T18:53:13.467Z,21.87
2019-02-27T18:55:44.000Z,23.43
2019-02-27T18:58:13.522Z,21.10
2019-02-27T19:00:42.860Z,22.27
2019-02-27T19:03:13.152Z,19.43
2019-02-27T19:05:42.514Z,20.70
2019-02-27T19:08:12.106Z,19.90
2019-02-27T19:10:42.651Z,17.83
2019-02-27T19:13:12.315Z,20.80
2019-02-27T19:15:45.453Z,17.30
2019-02-27T19:18:13.197Z,20.07
2019-02-27T19:20:48.589Z,17.10
2019-02-27T19:23:18.569Z,17.23
2019-02-27T19:25:48.208Z,19.17
2019-02-27T19:28:17.613Z,20.93
2019-02-27T19:30:47.222Z,18.57
2019-02-27T19:33:16.847Z,21.40
2019-02-27T19:35:46.432Z,19.00
2019-02-27T19:38:16.060Z,23.47
2019-02-27T19:40:45.405Z,22.33
2019-02-27T19:43:15.011Z,18.87
2019-02-27T19:45:44.656Z,22.70
2019-02-27T19:48:14.005Z,22.50
2019-02-27T19:50:46.371Z,20.37
2019-02-27T19:53:14.683Z,21.47
2019-02-27T19:55:44.286Z,21.03
2019-02-27T19:58:17.260Z,19.23
2019-02-27T20:00:48.440Z,22.60
2019-02-27T20:03:16.282Z,23.83
2019-02-27T20:05:45.899Z,21.03
2019-02-27T20:08:15.569Z,20.83
2019-02-27T20:10:45.250Z,20.33
2019-02-27T20:13:14.932Z,21.03
2019-02-27T20:15:45.479Z,22.07
2019-02-27T20:18:15.792Z,19.07
2019-02-27T20:20:45.407Z,19.40
2019-02-27T20:23:15.076Z,19.07
2019-02-27T20:25:44.591Z,21.17
2019-02-27T20:28:13.985Z,21.30
2019-02-27T20:30:43.578Z,21.73
2019-02-27T20:33:16.455Z,21.33
2019-02-27T20:35:46.020Z,20.83
2019-02-27T20:38:16.877Z,18.30
2019-02-27T20:40:46.564Z,20.97
2019-02-27T20:43:16.184Z,19.53
2019-02-27T20:45:45.750Z,17.83
2019-02-27T20:48:15.383Z,18.57
2019-02-27T20:50:52.329Z,17.50
2019-02-27T20:53:21.858Z,20.57
2019-02-27T20:55:51.555Z,18.50
2019-02-27T20:58:22.152Z,20.10
2019-02-27T21:00:51.985Z,18.37
2019-02-27T21:03:26.660Z,20.83
2019-02-27T21:05:52.641Z,25.50
2019-02-27T21:08:21.976Z,25.30
2019-02-27T21:10:54.728Z,16.53
2019-02-27T21:13:22.378Z,21.23
2019-02-27T21:15:52.076Z,17.33
2019-02-27T21:18:21.672Z,20.17
2019-02-27T21:20:51.042Z,17.17
2019-02-27T21:23:20.707Z,18.10
2019-02-27T21:25:50.312Z,18.77
2019-02-27T21:28:21.207Z,16.23
2019-02-27T21:30:52.374Z,19.57
2019-02-27T21:33:22.007Z,17.50
2019-02-27T21:35:51.706Z,18.30
2019-02-27T21:38:21.345Z,18.70
2019-02-27T21:40:50.644Z,18.83
2019-02-27T21:43:25.377Z,17.67
2019-02-27T21:45:51.302Z,16.90
2019-02-27T21:48:23.413Z,19.00
2019-02-27T21:50:52.222Z,15.57
2019-02-27T21:53:21.799Z,18.10
2019-02-27T21:55:51.109Z,18.73
2019-02-27T21:58:20.819Z,18.00
2019-02-27T22:00:50.133Z,17.97
2019-02-27T22:03:19.474Z,20.73
2019-02-27T22:05:52.651Z,17.07
2019-02-27T22:08:20.452Z,18.77
2019-02-27T22:10:53.322Z,16.00
2019-02-27T22:13:28.845Z,19.00
2019-02-27T22:15:55.875Z,16.77
2019-02-27T22:18:23.541Z,17.73
2019-02-27T22:20:53.187Z,16.53
2019-02-27T22:23:22.502Z,19.17
2019-02-27T22:25:51.843Z,17.33
2019-02-27T22:28:21.186Z,16.40
2019-02-27T22:30:50.524Z,19.30
2019-02-27T22:33:23.051Z,21.63
2019-02-27T22:35:51.475Z,18.00
2019-02-27T22:38:25.849Z,18.23
2019-02-27T22:40:52.230Z,17.03
2019-02-27T22:43:21.979Z,18.90
2019-02-27T22:45:52.324Z,19.17
2019-02-27T22:48:21.736Z,19.37
2019-02-27T22:50:51.049Z,19.20
2019-02-27T22:53:20.380Z,18.47
2019-02-27T22:55:49.971Z,18.10
2019-02-27T22:58:19.793Z,19.80
2019-02-27T23:01:01.322Z,19.13
2019-02-27T23:03:38.581Z,17.33
2019-02-27T23:06:09.269Z,20.97
2019-02-27T23:08:39.597Z,16.70
2019-02-27T23:11:09.404Z,20.30
2019-02-27T23:13:39.006Z,19.67
2019-02-27T23:16:08.341Z,18.63
2019-02-27T23:18:40.250Z,19.53
2019-02-27T23:21:08.990Z,15.83
2019-02-27T23:23:38.697Z,17.70
2019-02-27T23:26:08.029Z,18.80
2019-02-27T23:28:37.760Z,16.80
2019-02-27T23:31:07.078Z,14.37
2019-02-27T23:33:36.754Z,16.23
2019-02-27T23:36:06.533Z,17.30
2019-02-27T23:38:35.946Z,18.33
2019-02-27T23:41:05.291Z,18.43
2019-02-27T23:43:35.091Z,17.97
2019-02-27T23:46:05.131Z,17.80
2019-02-27T23:48:36.224Z,17.63
2019-02-27T23:51:05.526Z,16.63
2019-02-27T23:53:35.170Z,18.30
2019-02-27T23:56:05.147Z,16.20
2019-02-27T23:58:34.514Z,16.27
